createdAt,value
2019-06-27T00:00:19.115Z,27.69
2019-06-27T00:01:19.275Z,27.66
2019-06-27T00:02:19.417Z,27.68
2019-06-27T00:03:19.556Z,27.64
2019-06-27T00:04:19.704Z,27.61
2019-06-27T00:05:19.876Z,27.58
2019-06-27T00:06:19.994Z,27.52
2019-06-27T00:07:20.136Z,27.49
2019-06-27T00:08:20.278Z,27.45
2019-06-27T00:09:20.473Z,27.44
2019-06-27T00:10:20.551Z,27.37
2019-06-27T00:11:20.686Z,27.42
2019-06-27T00:12:20.828Z,27.37
2019-06-27T00:13:20.979Z,27.35
2019-06-27T00:14:21.116Z,27.37
2019-06-27T00:15:21.253Z,27.23
2019-06-27T00:16:21.390Z,27.22
2019-06-27T00:17:21.542Z,27.31
2019-06-27T00:18:21.677Z,27.23
2019-06-27T00:19:21.822Z,27.26
2019-06-27T00:20:21.957Z,27.16
2019-06-27T00:21:22.182Z,27.15
2019-06-27T00:22:22.244Z,27.07
2019-06-27T00:23:22.376Z,27.12
2019-06-27T00:24:22.545Z,27.19
2019-06-27T00:25:22.651Z,27.04
2019-06-27T00:26:22.795Z,27.03
2019-06-27T00:27:22.932Z,26.98
2019-06-27T00:28:23.092Z,27.12
2019-06-27T00:29:23.224Z,27.08
2019-06-27T00:30:23.372Z,26.97
2019-06-27T00:31:23.504Z,27.00
2019-06-27T00:32:23.654Z,26.94
2019-06-27T00:33:23.804Z,26.93
2019-06-27T00:34:23.921Z,26.93
2019-06-27T00:35:24.060Z,26.93
2019-06-27T00:36:24.211Z,26.93
2019-06-27T00:37:24.341Z,26.88
2019-06-27T00:38:24.482Z,26.94
2019-06-27T00:39:24.623Z,26.78
2019-06-27T00:40:24.756Z,26.80
2019-06-27T00:41:24.891Z,26.83
2019-06-27T00:42:25.033Z,26.70
2019-06-27T00:43:25.162Z,26.71
2019-06-27T00:44:25.302Z,26.75
2019-06-27T00:45:25.440Z,26.75
2019-06-27T00:46:25.590Z,26.67
2019-06-27T00:47:25.728Z,26.75
2019-06-27T00:48:25.868Z,26.73
2019-06-27T00:49:26.003Z,26.76
2019-06-27T00:50:26.172Z,26.73
2019-06-27T00:51:26.319Z,26.67
2019-06-27T00:52:26.449Z,26.75
2019-06-27T00:53:26.595Z,26.67
2019-06-27T00:54:26.740Z,26.70
2019-06-27T00:55:26.879Z,26.63
2019-06-27T00:56:27.015Z,26.64
2019-06-27T00:57:27.151Z,26.63
2019-06-27T00:58:27.315Z,26.57
2019-06-27T00:59:27.464Z,26.60
2019-06-27T01:00:27.592Z,26.56
2019-06-27T01:01:27.738Z,26.52
2019-06-27T01:02:27.876Z,26.53
2019-06-27T01:03:28.016Z,26.51
2019-06-27T01:04:28.173Z,26.42
2019-06-27T01:05:28.298Z,26.43
2019-06-27T01:06:28.443Z,26.45
2019-06-27T01:07:28.576Z,26.31
2019-06-27T01:08:28.741Z,26.33
2019-06-27T01:09:28.867Z,26.36
2019-06-27T01:10:29.096Z,26.33
2019-06-27T01:11:29.145Z,26.33
2019-06-27T01:12:29.312Z,26.33
2019-06-27T01:13:29.455Z,26.19
2019-06-27T01:14:29.591Z,26.28
2019-06-27T01:15:29.712Z,26.21
2019-06-27T01:16:29.875Z,26.16
2019-06-27T01:17:29.997Z,26.21
2019-06-27T01:18:30.136Z,26.08
2019-06-27T01:19:30.274Z,26.15
2019-06-27T01:20:30.443Z,26.10
2019-06-27T01:21:30.574Z,26.12
2019-06-27T01:22:30.705Z,26.03
2019-06-27T01:23:30.841Z,26.00
2019-06-27T01:24:31.090Z,26.10
2019-06-27T01:25:31.191Z,26.05
2019-06-27T01:26:31.264Z,25.90
2019-06-27T01:27:31.434Z,25.93
2019-06-27T01:28:31.569Z,25.96
2019-06-27T01:29:31.707Z,25.74
2019-06-27T01:30:31.892Z,25.89
2019-06-27T01:31:32.031Z,25.75
2019-06-27T01:32:32.165Z,25.83
2019-06-27T01:33:32.329Z,25.75
2019-06-27T01:34:32.453Z,25.75
2019-06-27T01:35:32.598Z,25.78
2019-06-27T01:36:32.742Z,25.77
2019-06-27T01:37:32.892Z,25.74
2019-06-27T01:38:33.028Z,25.75
2019-06-27T01:39:33.170Z,25.74
2019-06-27T01:40:33.307Z,25.74
2019-06-27T01:41:33.461Z,25.68
2019-06-27T01:42:33.602Z,25.68
2019-06-27T01:43:33.744Z,25.74
2019-06-27T01:44:33.896Z,25.71
2019-06-27T01:45:34.032Z,25.66
2019-06-27T01:46:34.169Z,25.64
2019-06-27T01:47:34.339Z,25.64
2019-06-27T01:48:34.468Z,25.67
2019-06-27T01:49:34.608Z,25.75
2019-06-27T01:50:34.749Z,25.71
2019-06-27T01:51:34.895Z,25.59
2019-06-27T01:52:35.031Z,25.73
2019-06-27T01:53:35.166Z,25.63
2019-06-27T01:54:35.307Z,25.64
2019-06-27T01:55:35.463Z,25.52
2019-06-27T01:56:35.591Z,25.55
2019-06-27T01:57:46.269Z,25.46
2019-06-27T01:58:35.892Z,25.61
2019-06-27T01:59:36.031Z,25.48
2019-06-27T02:00:36.165Z,25.51
2019-06-27T02:01:36.307Z,25.49
2019-06-27T02:02:36.453Z,25.51
2019-06-27T02:03:36.594Z,25.48
2019-06-27T02:04:36.723Z,25.38
2019-06-27T02:05:36.857Z,25.34
2019-06-27T02:06:37.008Z,25.34
2019-06-27T02:07:37.137Z,25.38
2019-06-27T02:08:37.281Z,25.34
2019-06-27T02:09:37.421Z,25.36
2019-06-27T02:10:37.589Z,25.38
2019-06-27T02:11:37.705Z,25.36
2019-06-27T02:12:37.842Z,25.19
2019-06-27T02:13:37.989Z,25.22
2019-06-27T02:14:38.118Z,25.28
2019-06-27T02:15:38.274Z,25.21
2019-06-27T02:16:38.440Z,25.18
2019-06-27T02:17:38.554Z,25.22
2019-06-27T02:18:38.688Z,25.18
2019-06-27T02:19:38.823Z,25.23
2019-06-27T02:20:38.988Z,25.18
2019-06-27T02:21:39.119Z,25.16
2019-06-27T02:22:39.258Z,25.12
2019-06-27T02:23:39.395Z,25.11
2019-06-27T02:24:39.543Z,25.08
2019-06-27T02:25:39.685Z,25.01
2019-06-27T02:26:39.817Z,25.08
2019-06-27T02:27:39.966Z,25.00
2019-06-27T02:28:40.098Z,25.01
2019-06-27T02:29:40.252Z,24.96
2019-06-27T02:30:40.372Z,24.99
2019-06-27T02:31:40.510Z,24.99
2019-06-27T02:32:40.651Z,24.97
2019-06-27T02:33:40.797Z,24.93
2019-06-27T02:34:40.936Z,24.86
2019-06-27T02:35:41.076Z,24.89
2019-06-27T02:36:41.212Z,24.76
2019-06-27T02:37:41.341Z,24.84
2019-06-27T02:38:41.482Z,24.84
2019-06-27T02:39:41.622Z,24.84
2019-06-27T02:40:41.786Z,24.79
2019-06-27T02:41:41.899Z,24.71
2019-06-27T02:42:42.036Z,24.78
2019-06-27T02:43:42.174Z,24.86
2019-06-27T02:44:42.376Z,24.78
2019-06-27T02:45:42.450Z,24.84
2019-06-27T02:46:42.619Z,24.78
2019-06-27T02:47:42.732Z,24.74
2019-06-27T02:48:42.860Z,24.84
2019-06-27T02:49:42.997Z,24.74
2019-06-27T02:50:43.133Z,24.82
2019-06-27T02:51:43.273Z,24.76
2019-06-27T02:52:43.414Z,24.74
2019-06-27T02:53:43.548Z,24.66
2019-06-27T02:54:43.682Z,24.68
2019-06-27T02:55:43.827Z,24.71
2019-06-27T02:56:43.958Z,24.71
2019-06-27T02:57:44.099Z,24.66
2019-06-27T02:58:44.240Z,24.60
2019-06-27T02:59:44.373Z,24.63
2019-06-27T03:00:44.508Z,24.56
2019-06-27T03:01:44.649Z,24.53
2019-06-27T03:02:44.788Z,24.62
2019-06-27T03:03:44.924Z,24.62
2019-06-27T03:04:45.063Z,24.55
2019-06-27T03:05:45.215Z,24.63
2019-06-27T03:06:45.338Z,24.52
2019-06-27T03:07:45.474Z,24.47
2019-06-27T03:08:45.612Z,24.56
2019-06-27T03:09:45.752Z,24.48
2019-06-27T03:10:45.894Z,24.47
2019-06-27T03:11:46.026Z,24.52
2019-06-27T03:12:46.169Z,24.44
2019-06-27T03:13:46.306Z,24.48
2019-06-27T03:14:46.439Z,24.43
2019-06-27T03:15:46.577Z,24.41
2019-06-27T03:16:46.721Z,24.43
2019-06-27T03:17:46.861Z,24.47
2019-06-27T03:18:46.992Z,24.41
2019-06-27T03:19:47.129Z,24.38
2019-06-27T03:20:47.280Z,24.41
2019-06-27T03:21:47.408Z,24.44
2019-06-27T03:22:47.548Z,24.36
2019-06-27T03:23:47.685Z,24.36
2019-06-27T03:24:47.839Z,24.28
2019-06-27T03:25:47.964Z,24.25
2019-06-27T03:26:48.103Z,24.26
2019-06-27T03:27:48.234Z,24.16
2019-06-27T03:28:53.138Z,24.18
2019-06-27T03:29:48.515Z,24.18
2019-06-27T03:30:48.779Z,24.16
2019-06-27T03:31:48.790Z,24.15
2019-06-27T03:32:48.955Z,24.10
2019-06-27T03:33:49.068Z,24.07
2019-06-27T03:34:49.200Z,24.11
2019-06-27T03:35:49.342Z,24.13
2019-06-27T03:36:49.478Z,24.11
2019-06-27T03:37:49.614Z,24.06
2019-06-27T03:38:49.746Z,24.10
2019-06-27T03:39:49.887Z,24.07
2019-06-27T03:40:50.037Z,24.06
2019-06-27T03:41:50.163Z,24.01
2019-06-27T03:42:50.304Z,24.13
2019-06-27T03:43:50.439Z,24.03
2019-06-27T03:44:50.595Z,24.10
2019-06-27T03:45:50.715Z,24.01
2019-06-27T03:46:50.855Z,24.07
2019-06-27T03:47:50.992Z,24.10
2019-06-27T03:48:51.125Z,24.08
2019-06-27T03:49:51.267Z,24.08
2019-06-27T03:50:55.855Z,24.08
2019-06-27T03:51:51.541Z,24.07
2019-06-27T03:52:51.674Z,24.04
2019-06-27T03:53:51.833Z,24.10
2019-06-27T03:54:51.985Z,23.91
2019-06-27T03:55:52.098Z,24.08
2019-06-27T03:56:52.247Z,24.04
2019-06-27T03:57:52.379Z,24.03
2019-06-27T03:59:10.833Z,24.03
2019-06-27T03:59:52.655Z,24.06
2019-06-27T04:00:52.792Z,24.01
2019-06-27T04:01:52.924Z,24.19
2019-06-27T04:02:53.073Z,24.08
2019-06-27T04:03:53.208Z,24.04
2019-06-27T04:04:53.348Z,24.07
2019-06-27T04:05:53.487Z,24.01
2019-06-27T04:06:53.624Z,23.97
2019-06-27T04:07:53.766Z,24.03
2019-06-27T04:08:53.914Z,24.00
2019-06-27T04:09:54.054Z,24.07
2019-06-27T04:10:54.187Z,24.04
2019-06-27T04:11:54.323Z,24.07
2019-06-27T04:12:54.466Z,24.06
2019-06-27T04:13:54.601Z,24.03
2019-06-27T04:14:54.737Z,24.11
2019-06-27T04:15:54.880Z,24.07
2019-06-27T04:16:55.008Z,24.08
2019-06-27T04:17:55.148Z,24.01
2019-06-27T04:18:55.292Z,24.06
2019-06-27T04:19:55.420Z,24.07
2019-06-27T04:20:55.573Z,24.04
2019-06-27T04:21:55.694Z,24.06
2019-06-27T04:22:55.833Z,24.07
2019-06-27T04:23:55.982Z,24.15
2019-06-27T04:24:56.110Z,24.16
2019-06-27T04:25:56.251Z,24.07
2019-06-27T04:26:56.393Z,24.08
2019-06-27T04:27:59.797Z,24.10
2019-06-27T04:28:56.661Z,24.10
2019-06-27T04:29:56.803Z,24.16
2019-06-27T04:30:56.937Z,24.22
2019-06-27T04:31:57.093Z,24.18
2019-06-27T04:32:57.215Z,24.16
2019-06-27T04:33:57.353Z,24.21
2019-06-27T04:34:57.489Z,24.11
2019-06-27T04:35:57.625Z,24.18
2019-06-27T04:36:57.767Z,24.13
2019-06-27T04:37:57.898Z,24.11
2019-06-27T04:38:58.040Z,24.07
2019-06-27T04:39:58.176Z,24.08
2019-06-27T04:40:58.312Z,24.00
2019-06-27T04:41:58.461Z,24.01
2019-06-27T04:42:58.593Z,23.94
2019-06-27T04:43:58.730Z,24.01
2019-06-27T04:44:58.866Z,23.98
2019-06-27T04:45:59.011Z,23.94
2019-06-27T04:46:59.143Z,23.91
2019-06-27T04:47:59.285Z,23.96
2019-06-27T04:48:59.418Z,24.03
2019-06-27T04:49:59.557Z,23.91
2019-06-27T04:50:59.691Z,23.97
2019-06-27T04:51:59.830Z,23.92
2019-06-27T04:52:59.977Z,23.92
2019-06-27T04:54:00.108Z,23.98
2019-06-27T04:55:03.308Z,23.79
2019-06-27T04:56:00.391Z,23.85
2019-06-27T04:57:00.522Z,23.84
2019-06-27T04:58:00.733Z,23.85
2019-06-27T04:59:00.803Z,23.82
2019-06-27T05:00:00.941Z,23.86
2019-06-27T05:01:01.068Z,23.76
2019-06-27T05:02:01.209Z,23.86
2019-06-27T05:03:01.357Z,23.92
2019-06-27T05:04:01.486Z,23.79
2019-06-27T05:05:01.627Z,23.76
2019-06-27T05:06:01.776Z,23.76
2019-06-27T05:07:01.954Z,23.84
2019-06-27T05:08:02.076Z,23.73
2019-06-27T05:09:02.196Z,23.64
2019-06-27T05:10:02.361Z,23.66
2019-06-27T05:11:02.498Z,23.69
2019-06-27T05:12:02.631Z,23.71
2019-06-27T05:13:02.769Z,23.70
2019-06-27T05:14:02.920Z,23.70
2019-06-27T05:15:03.052Z,23.76
2019-06-27T05:16:03.214Z,23.73
2019-06-27T05:17:03.348Z,23.74
2019-06-27T05:18:03.481Z,23.76
2019-06-27T05:19:03.611Z,23.71
2019-06-27T05:20:03.743Z,23.81
2019-06-27T05:21:03.883Z,23.74
2019-06-27T05:22:04.021Z,23.70
2019-06-27T05:23:04.194Z,23.69
2019-06-27T05:24:04.289Z,23.74
2019-06-27T05:25:04.427Z,23.67
2019-06-27T05:26:04.576Z,23.66
2019-06-27T05:27:04.719Z,23.71
2019-06-27T05:28:04.843Z,23.71
2019-06-27T05:29:04.987Z,23.59
2019-06-27T05:30:10.114Z,23.70
2019-06-27T05:31:05.270Z,23.64
2019-06-27T05:32:05.412Z,23.63
2019-06-27T05:33:05.553Z,23.61
2019-06-27T05:34:05.685Z,23.74
2019-06-27T05:35:05.824Z,23.66
2019-06-27T05:36:05.954Z,23.59
2019-06-27T05:37:06.091Z,23.56
2019-06-27T05:38:06.244Z,23.54
2019-06-27T05:39:06.370Z,23.52
2019-06-27T05:40:06.558Z,23.48
2019-06-27T05:41:06.678Z,23.49
2019-06-27T05:42:06.811Z,23.41
2019-06-27T05:43:06.943Z,23.51
2019-06-27T05:44:07.082Z,23.51
2019-06-27T05:45:07.209Z,23.55
2019-06-27T05:46:07.345Z,23.48
2019-06-27T05:47:07.488Z,23.49
2019-06-27T05:48:07.619Z,23.48
2019-06-27T05:49:07.770Z,23.49
2019-06-27T05:50:07.935Z,23.52
2019-06-27T05:51:08.048Z,23.49
2019-06-27T05:52:08.224Z,23.61
2019-06-27T05:53:08.324Z,23.52
2019-06-27T05:54:08.460Z,23.56
2019-06-27T05:55:08.601Z,23.54
2019-06-27T05:56:08.732Z,23.69
2019-06-27T05:57:08.899Z,23.60
2019-06-27T05:58:09.013Z,23.61
2019-06-27T05:59:09.158Z,23.59
2019-06-27T06:00:26.129Z,23.56
2019-06-27T06:01:09.418Z,23.63
2019-06-27T06:02:09.594Z,23.66
2019-06-27T06:03:09.706Z,23.67
2019-06-27T06:04:09.821Z,23.59
2019-06-27T06:05:09.955Z,23.71
2019-06-27T06:06:10.094Z,23.73
2019-06-27T06:07:10.238Z,23.70
2019-06-27T06:08:10.392Z,23.73
2019-06-27T06:09:10.514Z,23.66
2019-06-27T06:10:10.653Z,23.66
2019-06-27T06:11:10.783Z,23.71
2019-06-27T06:12:11.030Z,23.61
2019-06-27T06:13:11.067Z,23.66
2019-06-27T06:14:11.219Z,23.67
2019-06-27T06:15:11.348Z,23.64
2019-06-27T06:16:11.515Z,23.76
2019-06-27T06:17:11.665Z,23.69
2019-06-27T06:18:11.796Z,23.69
2019-06-27T06:19:11.925Z,23.70
2019-06-27T06:20:12.093Z,23.69
2019-06-27T06:21:12.229Z,23.63
2019-06-27T06:22:12.365Z,23.64
2019-06-27T06:23:12.529Z,23.61
2019-06-27T06:24:12.658Z,23.59
2019-06-27T06:25:12.795Z,23.67
2019-06-27T06:26:12.929Z,23.52
2019-06-27T06:27:13.083Z,23.67
2019-06-27T06:28:13.218Z,23.60
2019-06-27T06:29:13.360Z,23.63
2019-06-27T06:30:13.502Z,23.63
2019-06-27T06:31:13.641Z,23.70
2019-06-27T06:32:13.771Z,23.67
2019-06-27T06:33:13.928Z,23.64
2019-06-27T06:34:14.057Z,23.54
2019-06-27T06:35:14.193Z,23.63
2019-06-27T06:36:14.329Z,23.67
2019-06-27T06:37:14.470Z,23.67
2019-06-27T06:38:14.601Z,23.63
2019-06-27T06:39:14.758Z,23.59
2019-06-27T06:40:14.906Z,23.63
2019-06-27T06:41:15.033Z,23.66
2019-06-27T06:42:15.175Z,23.61
2019-06-27T06:43:15.304Z,23.60
2019-06-27T06:44:15.456Z,23.61
2019-06-27T06:45:15.596Z,23.73
2019-06-27T06:46:15.766Z,23.71
2019-06-27T06:47:15.881Z,23.78
2019-06-27T06:48:16.014Z,23.79
2019-06-27T06:49:16.149Z,23.84
2019-06-27T06:50:16.287Z,23.81
2019-06-27T06:51:16.433Z,23.85
2019-06-27T06:52:16.563Z,23.85
2019-06-27T06:53:16.695Z,23.85
2019-06-27T06:54:16.850Z,24.03
2019-06-27T06:55:16.980Z,23.98
2019-06-27T06:56:17.123Z,24.00
2019-06-27T06:57:17.254Z,24.00
2019-06-27T06:58:17.399Z,23.94
2019-06-27T06:59:17.538Z,24.00
2019-06-27T07:00:17.673Z,24.00
2019-06-27T07:01:17.804Z,23.96
2019-06-27T07:02:17.956Z,23.96
2019-06-27T07:03:18.109Z,23.89
2019-06-27T07:04:18.235Z,24.04
2019-06-27T07:05:18.364Z,24.08
2019-06-27T07:06:18.576Z,24.10
2019-06-27T07:07:18.655Z,24.03
2019-06-27T07:08:18.818Z,24.06
2019-06-27T07:09:18.963Z,24.11
2019-06-27T07:10:19.106Z,24.10
2019-06-27T07:11:19.242Z,24.07
2019-06-27T07:12:19.370Z,24.11
2019-06-27T07:13:19.507Z,24.11
2019-06-27T07:14:19.634Z,24.10
2019-06-27T07:15:19.769Z,24.18
2019-06-27T07:16:19.903Z,24.08
2019-06-27T07:17:20.050Z,24.15
2019-06-27T07:18:20.190Z,24.16
2019-06-27T07:19:20.329Z,24.22
2019-06-27T07:20:20.461Z,24.23
2019-06-27T07:21:20.587Z,24.21
2019-06-27T07:22:20.721Z,24.23
2019-06-27T07:23:20.867Z,24.25
2019-06-27T07:24:21.005Z,24.28
2019-06-27T07:25:21.146Z,24.28
2019-06-27T07:26:22.482Z,24.33
2019-06-27T07:27:21.444Z,24.26
2019-06-27T07:28:21.564Z,24.28
2019-06-27T07:29:21.705Z,24.28
2019-06-27T07:30:21.842Z,24.13
2019-06-27T07:31:21.986Z,24.21
2019-06-27T07:32:22.118Z,24.28
2019-06-27T07:33:22.260Z,24.22
2019-06-27T07:34:22.397Z,24.33
2019-06-27T07:35:22.563Z,24.31
2019-06-27T07:36:22.670Z,24.31
2019-06-27T07:37:22.808Z,24.26
2019-06-27T07:38:22.941Z,24.33
2019-06-27T07:39:23.101Z,24.43
2019-06-27T07:40:23.233Z,24.41
2019-06-27T07:41:23.356Z,24.43
2019-06-27T07:42:23.505Z,24.41
2019-06-27T07:43:23.626Z,24.43
2019-06-27T07:44:23.763Z,24.41
2019-06-27T07:45:23.910Z,24.47
2019-06-27T07:46:25.828Z,24.43
2019-06-27T07:47:24.172Z,24.44
2019-06-27T07:48:24.308Z,24.43
2019-06-27T07:49:24.443Z,24.47
2019-06-27T07:50:24.580Z,24.47
2019-06-27T07:51:24.721Z,24.47
2019-06-27T07:52:24.859Z,24.44
2019-06-27T07:53:25.005Z,24.51
2019-06-27T07:54:25.133Z,24.45
2019-06-27T07:55:25.275Z,24.53
2019-06-27T07:56:25.407Z,24.55
2019-06-27T07:57:25.543Z,24.53
2019-06-27T07:58:25.686Z,24.48
2019-06-27T07:59:25.814Z,24.56
2019-06-27T08:00:25.962Z,24.51
2019-06-27T08:01:35.045Z,24.60
2019-06-27T08:02:26.233Z,24.59
2019-06-27T08:03:26.361Z,24.55
2019-06-27T08:04:26.502Z,24.66
2019-06-27T08:05:26.631Z,24.55
2019-06-27T08:06:26.773Z,24.51
2019-06-27T08:07:26.907Z,24.51
2019-06-27T08:08:27.051Z,24.53
2019-06-27T08:09:27.193Z,24.41
2019-06-27T08:10:27.326Z,24.51
2019-06-27T08:11:27.469Z,24.44
2019-06-27T08:12:27.603Z,24.43
2019-06-27T08:13:28.123Z,24.44
2019-06-27T08:14:27.916Z,24.53
2019-06-27T08:15:28.014Z,24.47
2019-06-27T08:16:28.155Z,24.47
2019-06-27T08:17:28.310Z,24.56
2019-06-27T08:18:28.569Z,24.56
2019-06-27T08:19:28.687Z,24.68
2019-06-27T08:20:28.725Z,24.70
2019-06-27T08:21:28.882Z,24.78
2019-06-27T08:22:29.017Z,24.75
2019-06-27T08:23:40.917Z,24.78
2019-06-27T08:24:29.286Z,24.75
2019-06-27T08:25:29.421Z,24.76
2019-06-27T08:26:29.579Z,24.70
2019-06-27T08:27:29.710Z,24.81
2019-06-27T08:28:29.831Z,24.85
2019-06-27T08:29:29.987Z,24.66
2019-06-27T08:30:30.107Z,24.55
2019-06-27T08:31:30.244Z,24.53
2019-06-27T08:32:30.394Z,24.52
2019-06-27T08:33:30.521Z,24.65
2019-06-27T08:34:30.658Z,24.76
2019-06-27T08:35:33.504Z,24.75
2019-06-27T08:36:30.925Z,24.68
2019-06-27T08:37:31.055Z,24.68
2019-06-27T08:38:31.202Z,24.74
2019-06-27T08:39:31.356Z,24.71
2019-06-27T08:40:31.476Z,24.81
2019-06-27T08:41:31.617Z,24.79
2019-06-27T08:42:31.748Z,24.90
2019-06-27T08:43:31.883Z,24.89
2019-06-27T08:44:32.022Z,25.00
2019-06-27T08:45:32.153Z,24.97
2019-06-27T08:46:32.292Z,24.99
2019-06-27T08:47:32.435Z,25.03
2019-06-27T08:48:32.585Z,25.04
2019-06-27T08:49:32.714Z,25.00
2019-06-27T08:50:32.852Z,24.99
2019-06-27T08:51:32.991Z,24.99
2019-06-27T08:52:33.125Z,24.94
2019-06-27T08:53:33.279Z,24.91
2019-06-27T08:54:33.425Z,24.96
2019-06-27T08:55:33.543Z,25.00
2019-06-27T08:56:33.682Z,25.04
2019-06-27T08:57:33.826Z,25.12
2019-06-27T08:58:33.962Z,25.16
2019-06-27T08:59:34.090Z,25.19
2019-06-27T09:00:34.238Z,25.22
2019-06-27T09:01:34.368Z,25.23
2019-06-27T09:02:34.504Z,25.37
2019-06-27T09:03:34.649Z,25.34
2019-06-27T09:04:34.785Z,25.33
2019-06-27T09:05:34.913Z,25.37
2019-06-27T09:06:35.060Z,25.48
2019-06-27T09:07:35.191Z,25.48
2019-06-27T09:08:35.337Z,25.36
2019-06-27T09:09:35.457Z,25.37
2019-06-27T09:10:35.602Z,25.33
2019-06-27T09:11:38.285Z,25.36
2019-06-27T09:12:35.871Z,25.51
2019-06-27T09:13:36.004Z,25.48
2019-06-27T09:14:36.154Z,25.48
2019-06-27T09:15:36.304Z,25.48
2019-06-27T09:16:36.438Z,25.45
2019-06-27T09:17:36.578Z,25.59
2019-06-27T09:18:36.710Z,25.55
2019-06-27T09:19:36.851Z,25.52
2019-06-27T09:20:36.979Z,25.49
2019-06-27T09:21:37.110Z,25.55
2019-06-27T09:22:37.249Z,25.56
2019-06-27T09:23:37.681Z,25.55
2019-06-27T09:24:37.536Z,25.48
2019-06-27T09:25:37.694Z,25.52
2019-06-27T09:26:37.816Z,25.55
2019-06-27T09:27:37.963Z,25.56
2019-06-27T09:28:38.117Z,25.52
2019-06-27T09:29:38.236Z,25.34
2019-06-27T09:30:38.373Z,25.51
2019-06-27T09:31:38.517Z,25.53
2019-06-27T09:32:38.657Z,25.56
2019-06-27T09:33:38.789Z,25.43
2019-06-27T09:34:38.941Z,25.49
2019-06-27T09:35:39.055Z,25.49
2019-06-27T09:36:39.190Z,25.46
2019-06-27T09:37:39.325Z,25.56
2019-06-27T09:38:39.470Z,25.64
2019-06-27T09:39:39.605Z,25.63
2019-06-27T09:40:39.743Z,25.58
2019-06-27T09:41:39.894Z,25.68
2019-06-27T09:42:40.010Z,25.59
2019-06-27T09:43:40.145Z,25.66
2019-06-27T09:44:42.273Z,25.75
2019-06-27T09:45:40.424Z,25.70
2019-06-27T09:46:40.549Z,25.71
2019-06-27T09:47:40.696Z,25.74
2019-06-27T09:48:40.821Z,25.86
2019-06-27T09:49:40.974Z,25.81
2019-06-27T09:50:41.117Z,25.82
2019-06-27T09:51:41.256Z,25.81
2019-06-27T09:52:41.402Z,25.89
2019-06-27T09:53:41.528Z,25.86
2019-06-27T09:54:41.669Z,25.90
2019-06-27T09:55:41.806Z,25.92
2019-06-27T09:56:41.947Z,25.96
2019-06-27T09:57:42.144Z,25.93
2019-06-27T09:58:42.219Z,26.01
2019-06-27T09:59:42.357Z,26.01
2019-06-27T10:00:42.502Z,26.03
2019-06-27T10:01:42.622Z,26.07
2019-06-27T10:02:42.965Z,26.08
2019-06-27T10:03:42.910Z,26.12
2019-06-27T10:04:43.039Z,26.12
2019-06-27T10:05:43.184Z,26.19
2019-06-27T10:06:43.333Z,26.24
2019-06-27T10:07:43.453Z,26.26
2019-06-27T10:08:43.602Z,26.26
2019-06-27T10:09:43.747Z,26.33
2019-06-27T10:10:43.899Z,26.28
2019-06-27T10:11:44.029Z,26.27
2019-06-27T10:12:44.159Z,26.27
2019-06-27T10:13:44.302Z,26.33
2019-06-27T10:14:44.438Z,26.33
2019-06-27T10:15:44.569Z,26.28
2019-06-27T10:16:44.708Z,26.41
2019-06-27T10:17:44.852Z,26.36
2019-06-27T10:18:44.990Z,26.34
2019-06-27T10:19:45.130Z,26.36
2019-06-27T10:20:45.273Z,26.39
2019-06-27T10:21:45.406Z,26.43
2019-06-27T10:22:45.530Z,26.48
2019-06-27T10:23:45.668Z,26.34
2019-06-27T10:24:45.807Z,26.41
2019-06-27T10:25:45.956Z,26.41
2019-06-27T10:26:46.080Z,26.43
2019-06-27T10:27:46.218Z,26.51
2019-06-27T10:28:46.359Z,26.58
2019-06-27T10:29:46.498Z,26.56
2019-06-27T10:30:49.139Z,26.61
2019-06-27T10:31:46.808Z,26.64
2019-06-27T10:32:58.556Z,26.63
2019-06-27T10:33:47.065Z,26.71
2019-06-27T10:34:47.194Z,26.73
2019-06-27T10:35:47.326Z,26.78
2019-06-27T10:36:47.482Z,26.85
2019-06-27T10:37:47.607Z,26.79
2019-06-27T10:38:47.743Z,26.82
2019-06-27T10:39:47.884Z,26.86
2019-06-27T10:40:48.031Z,26.93
2019-06-27T10:41:48.168Z,26.86
2019-06-27T10:42:48.312Z,26.94
2019-06-27T10:43:48.446Z,26.88
2019-06-27T10:44:48.578Z,26.95
2019-06-27T10:45:48.781Z,27.01
2019-06-27T10:46:48.853Z,26.98
2019-06-27T10:47:48.992Z,27.05
2019-06-27T10:48:49.130Z,27.04
2019-06-27T10:49:49.270Z,27.05
2019-06-27T10:50:49.407Z,27.13
2019-06-27T10:51:49.558Z,27.15
2019-06-27T10:52:49.686Z,27.17
2019-06-27T10:53:49.888Z,27.16
2019-06-27T10:54:49.965Z,27.19
2019-06-27T10:55:50.102Z,27.25
2019-06-27T10:56:50.234Z,27.16
2019-06-27T10:57:50.379Z,27.26
2019-06-27T10:58:50.525Z,27.22
2019-06-27T10:59:50.661Z,27.32
2019-06-27T11:00:50.801Z,27.31
2019-06-27T11:01:50.935Z,27.16
2019-06-27T11:02:51.104Z,27.32
2019-06-27T11:03:51.205Z,27.30
2019-06-27T11:04:51.357Z,27.32
2019-06-27T11:05:51.484Z,27.32
2019-06-27T11:06:51.645Z,27.34
2019-06-27T11:07:51.784Z,27.41
2019-06-27T11:08:51.917Z,27.37
2019-06-27T11:09:52.073Z,27.49
2019-06-27T11:10:52.216Z,27.44
2019-06-27T11:11:52.408Z,27.50
2019-06-27T11:12:52.506Z,27.47
2019-06-27T11:13:58.959Z,27.57
2019-06-27T11:14:59.352Z,27.63
2019-06-27T11:15:52.917Z,27.68
2019-06-27T11:16:53.070Z,27.78
2019-06-27T11:17:53.196Z,27.80
2019-06-27T11:18:53.343Z,27.83
2019-06-27T11:19:53.476Z,27.75
2019-06-27T11:20:53.621Z,27.79
2019-06-27T11:21:53.753Z,27.90
2019-06-27T11:22:53.907Z,27.76
2019-06-27T11:23:54.053Z,27.75
2019-06-27T11:24:54.190Z,27.88
2019-06-27T11:25:54.328Z,27.70
2019-06-27T11:26:54.498Z,27.85
2019-06-27T11:27:54.637Z,27.73
2019-06-27T11:28:55.219Z,27.73
2019-06-27T11:29:54.902Z,27.79
2019-06-27T11:30:55.062Z,27.78
2019-06-27T11:31:55.195Z,27.76
2019-06-27T11:32:55.339Z,27.79
2019-06-27T11:33:55.485Z,27.79
2019-06-27T11:34:55.642Z,27.85
2019-06-27T11:35:55.766Z,27.85
2019-06-27T11:36:55.941Z,27.82
2019-06-27T11:37:56.083Z,27.95
2019-06-27T11:38:56.203Z,28.01
2019-06-27T11:39:56.337Z,27.94
2019-06-27T11:40:56.480Z,27.95
2019-06-27T11:41:56.629Z,27.94
2019-06-27T11:42:56.764Z,28.12
2019-06-27T11:43:56.898Z,28.07
2019-06-27T11:44:57.039Z,27.98
2019-06-27T11:45:57.184Z,27.85
2019-06-27T11:46:57.321Z,27.87
2019-06-27T11:47:57.467Z,28.06
2019-06-27T11:48:57.605Z,28.01
2019-06-27T11:49:57.757Z,28.01
2019-06-27T11:50:57.891Z,28.03
2019-06-27T11:51:58.021Z,28.16
2019-06-27T11:52:58.162Z,28.07
2019-06-27T11:53:58.324Z,28.09
2019-06-27T11:54:58.508Z,28.10
2019-06-27T11:55:58.598Z,28.13
2019-06-27T11:56:58.762Z,28.16
2019-06-27T11:57:58.905Z,28.20
2019-06-27T11:58:59.030Z,28.22
2019-06-27T11:59:59.170Z,28.24
2019-06-27T12:00:59.311Z,28.15
2019-06-27T12:01:59.473Z,28.28
2019-06-27T12:02:59.608Z,28.19
2019-06-27T12:03:59.745Z,28.15
2019-06-27T12:04:59.887Z,28.20
2019-06-27T12:06:00.022Z,28.28
2019-06-27T12:07:00.166Z,28.24
2019-06-27T12:08:00.385Z,28.28
2019-06-27T12:09:00.568Z,28.24
2019-06-27T12:10:00.653Z,28.31
2019-06-27T12:11:00.757Z,28.20
2019-06-27T12:12:00.904Z,28.42
2019-06-27T12:13:01.044Z,28.42
2019-06-27T12:14:01.187Z,28.46
2019-06-27T12:15:01.374Z,28.56
2019-06-27T12:16:01.483Z,28.56
2019-06-27T12:17:01.636Z,28.56
2019-06-27T12:18:01.771Z,28.66
2019-06-27T12:19:01.941Z,28.61
2019-06-27T12:20:02.096Z,28.74
2019-06-27T12:21:05.765Z,28.74
2019-06-27T12:22:02.369Z,28.81
2019-06-27T12:23:02.508Z,28.79
2019-06-27T12:24:02.643Z,28.89
2019-06-27T12:25:02.785Z,28.89
2019-06-27T12:26:02.910Z,28.89
2019-06-27T12:27:03.056Z,29.02
2019-06-27T12:28:03.182Z,29.10
2019-06-27T12:29:03.396Z,29.02
2019-06-27T12:30:03.626Z,29.15
2019-06-27T12:31:19.250Z,28.91
2019-06-27T12:32:03.756Z,29.15
2019-06-27T12:33:03.907Z,29.07
2019-06-27T12:34:07.213Z,29.03
2019-06-27T12:35:04.164Z,29.06
2019-06-27T12:36:04.308Z,29.07
2019-06-27T12:37:04.458Z,29.02
2019-06-27T12:38:04.596Z,29.07
2019-06-27T12:39:04.739Z,29.17
2019-06-27T12:40:04.882Z,29.12
2019-06-27T12:41:05.015Z,29.17
2019-06-27T12:42:05.152Z,29.04
2019-06-27T12:43:05.302Z,29.18
2019-06-27T12:44:05.515Z,29.12
2019-06-27T12:45:05.635Z,29.07
2019-06-27T12:46:05.772Z,29.15
2019-06-27T12:47:05.912Z,29.22
2019-06-27T12:48:07.554Z,29.34
2019-06-27T12:49:06.198Z,29.49
2019-06-27T12:50:06.330Z,29.49
2019-06-27T12:51:06.476Z,29.55
2019-06-27T12:52:06.623Z,29.55
2019-06-27T12:53:06.747Z,29.49
2019-06-27T12:54:06.882Z,29.58